Time;durP1;ratioP1;P1;durP2;ratioP2;P2;SDS_P1;SDS_P2;PMS_P1;PMS_P2;Temp;Humidity;BMP_temperature;BMP_pressure;BME280_temperature;BME280_humidity;BME280_pressure;Samples;Min_cycle;Max_cycle;Signal;HPM_P1;HPM_P2
2023/06/12 00:01:59;;;;;;;8.27;5.20;;;14.70;99.90;;;;;;4993888;28;20211;-75
2023/06/12 00:04:27;;;;;;;9.40;5.00;;;14.70;99.90;;;;;;4994365;28;20204;-75
2023/06/12 00:06:54;;;;;;;7.53;4.67;;;14.70;99.90;;;;;;4993795;28;20503;-75
2023/06/12 00:09:22;;;;;;;9.27;4.73;;;14.70;99.90;;;;;;5010203;28;20208;-76
2023/06/12 00:11:49;;;;;;;7.77;4.53;;;14.60;99.90;;;;;;4977683;28;20228;-76
2023/06/12 00:14:16;;;;;;;10.57;4.70;;;14.60;99.90;;;;;;5009916;28;20204;-77
2023/06/12 00:16:43;;;;;;;9.73;4.77;;;14.60;99.90;;;;;;4999837;28;20764;-76
2023/06/12 00:19:12;;;;;;;9.20;4.53;;;14.60;99.90;;;;;;5054161;28;20268;-76
2023/06/12 00:21:39;;;;;;;8.03;4.43;;;14.50;99.90;;;;;;5072069;28;20193;-77
2023/06/12 00:24:08;;;;;;;5.60;4.00;;;14.40;99.90;;;;;;5054331;28;20688;-76
2023/06/12 00:26:36;;;;;;;8.90;4.60;;;14.40;99.90;;;;;;5054478;28;20271;-76
2023/06/12 00:29:03;;;;;;;8.37;4.30;;;14.40;99.90;;;;;;5054011;28;20194;-78
2023/06/12 00:31:30;;;;;;;5.97;4.03;;;14.30;99.90;;;;;;5071977;28;20289;-77
2023/06/12 00:33:58;;;;;;;9.83;4.20;;;14.20;99.90;;;;;;5054131;28;20218;-76
2023/06/12 00:36:25;;;;;;;9.00;4.10;;;14.20;99.90;;;;;;5037471;28;20252;-76
2023/06/12 00:38:53;;;;;;;9.47;4.20;;;14.20;99.90;;;;;;5054553;28;20197;-76
2023/06/12 00:41:20;;;;;;;10.33;4.47;;;14.20;99.90;;;;;;5054054;28;20312;-75
2023/06/12 00:43:47;;;;;;;7.30;3.93;;;14.10;99.90;;;;;;5040630;28;20193;-76
2023/06/12 00:46:14;;;;;;;7.63;4.20;;;14.10;99.90;;;;;;5057959;28;20297;-76
2023/06/12 00:48:42;;;;;;;6.93;4.13;;;14.10;99.90;;;;;;5057925;28;20205;-76
2023/06/12 00:51:10;;;;;;;5.80;4.30;;;14.00;99.90;;;;;;5075840;28;20202;-75
2023/06/12 00:53:37;;;;;;;7.07;4.77;;;13.90;99.90;;;;;;5057609;28;20194;-75
2023/06/12 00:56:04;;;;;;;6.87;3.87;;;13.80;99.90;;;;;;5057608;28;20221;-75
2023/06/12 00:58:32;;;;;;;7.57;4.50;;;13.80;99.90;;;;;;5057830;28;20224;-75
2023/06/12 01:00:58;;;;;;;7.57;4.50;;;13.80;99.90;;;;;;5041438;28;20301;-76
2023/06/12 01:03:26;;;;;;;7.20;4.40;;;13.80;99.90;;;;;;5075729;28;20189;-75
2023/06/12 01:05:55;;;;;;;6.53;4.00;;;13.80;99.90;;;;;;5057499;28;20237;-75
2023/06/12 01:08:29;;;;;;;6.53;4.30;;;13.80;99.90;;;;;;5057553;28;20279;-74
2023/06/12 01:11:11;;;;;;;7.10;4.13;;;13.70;99.90;;;;;;5075552;28;20218;-75
2023/06/12 01:13:38;;;;;;;7.90;3.87;;;13.70;99.90;;;;;;5075778;28;20253;-75
2023/06/12 01:16:05;;;;;;;5.27;3.90;;;13.60;99.90;;;;;;5075477;28;20226;-75
2023/06/12 01:18:33;;;;;;;7.47;3.73;;;13.60;99.90;;;;;;5057206;28;20258;-76
2023/06/12 01:21:09;;;;;;;6.73;4.10;;;13.60;99.90;;;;;;5057643;28;20210;-76
2023/06/12 01:23:39;;;;;;;7.33;3.90;;;13.50;99.90;;;;;;5057644;28;20210;-76
2023/06/12 01:26:12;;;;;;;7.20;3.97;;;13.50;99.90;;;;;;5057219;28;20229;-75
2023/06/12 01:28:45;;;;;;;5.63;3.90;;;13.40;99.90;;;;;;5057219;28;20198;-76
2023/06/12 01:31:43;;;;;;;8.07;4.00;;;13.40;99.90;;;;;;5057199;28;20229;-75
2023/06/12 01:34:16;;;;;;;7.53;4.10;;;13.40;99.90;;;;;;5057154;28;20283;-76
2023/06/12 01:36:53;;;;;;;7.90;4.50;;;13.30;99.90;;;;;;5057542;28;20601;-76
2023/06/12 01:39:23;;;;;;;5.67;3.63;;;13.30;99.90;;;;;;5040645;28;20213;-75
2023/06/12 01:41:50;;;;;;;5.90;3.70;;;13.20;99.90;;;;;;5057075;28;20205;-76
2023/06/12 01:44:20;;;;;;;7.97;3.67;;;13.30;99.90;;;;;;5057157;28;20233;-77
2023/06/12 01:46:47;;;;;;;5.83;3.90;;;13.20;99.90;;;;;;5040435;28;20321;-77
2023/06/12 01:49:14;;;;;;;9.33;3.77;;;13.10;99.90;;;;;;5056821;28;20525;-75
2023/06/12 01:51:41;;;;;;;7.23;4.20;;;13.10;99.90;;;;;;5056857;28;20219;-77
2023/06/12 01:54:08;;;;;;;5.03;3.70;;;13.00;99.90;;;;;;5040084;28;20223;-75
2023/06/12 01:56:36;;;;;;;8.43;4.10;;;13.00;99.90;;;;;;5056856;28;20222;-76
2023/06/12 01:59:04;;;;;;;6.00;3.77;;;13.00;99.90;;;;;;5057003;28;20217;-75
2023/06/12 02:01:31;;;;;;;6.67;3.83;;;13.00;99.90;;;;;;5056837;28;20250;-75
2023/06/12 02:03:58;;;;;;;9.20;3.77;;;12.80;99.90;;;;;;5074837;28;20616;-75
2023/06/12 02:06:27;;;;;;;9.17;4.20;;;12.80;99.90;;;;;;5074602;28;20642;-75
2023/06/12 02:08:54;;;;;;;14.90;4.77;;;12.80;99.90;;;;;;5056677;28;20719;-75
2023/06/12 02:11:21;;;;;;;7.17;4.07;;;12.70;99.90;;;;;;5056589;28;20264;-76
2023/06/12 02:13:48;;;;;;;10.07;4.00;;;12.70;99.90;;;;;;5056630;28;20236;-76
2023/06/12 02:16:21;;;;;;;10.03;3.93;;;12.70;99.90;;;;;;5074442;28;20588;-76
2023/06/12 02:18:48;;;;;;;5.20;3.63;;;12.70;99.90;;;;;;5056629;28;20225;-76
2023/06/12 02:21:15;;;;;;;6.93;3.50;;;12.60;99.90;;;;;;5056451;28;20249;-76
2023/06/12 02:23:42;;;;;;;7.07;4.00;;;12.50;99.90;;;;;;5074549;28;20191;-75
2023/06/12 02:26:09;;;;;;;5.37;3.70;;;12.50;99.90;;;;;;5056506;28;20225;-76
2023/06/12 02:28:40;;;;;;;6.90;3.83;;;12.50;99.90;;;;;;5056172;28;20198;-76
2023/06/12 02:31:09;;;;;;;8.43;3.93;;;12.40;99.90;;;;;;5074058;28;20209;-76
2023/06/12 02:33:37;;;;;;;5.10;3.80;;;12.40;99.90;;;;;;5056271;28;20265;-76
2023/06/12 02:36:07;;;;;;;11.30;3.63;;;12.40;99.90;;;;;;5073844;28;20206;-76
2023/06/12 02:38:36;;;;;;;5.50;3.77;;;12.30;99.90;;;;;;5039627;28;20209;-76
2023/06/12 02:41:03;;;;;;;7.73;4.10;;;12.30;99.90;;;;;;5055776;28;20709;-77
2023/06/12 02:43:30;;;;;;;7.53;3.77;;;12.30;99.90;;;;;;4975915;28;20284;-75
2023/06/12 02:45:57;;;;;;;4.97;3.57;;;12.30;99.90;;;;;;4975841;28;20256;-76
2023/06/12 02:48:24;;;;;;;6.97;3.80;;;12.30;99.90;;;;;;4992216;28;20629;-76
2023/06/12 02:50:51;;;;;;;6.57;3.67;;;12.40;99.90;;;;;;4975829;28;20217;-77
2023/06/12 02:53:18;;;;;;;6.40;3.73;;;12.30;99.90;;;;;;4959774;28;20235;-77
2023/06/12 02:55:45;;;;;;;4.77;3.50;;;12.40;99.90;;;;;;4959943;28;20385;-77
2023/06/12 02:58:12;;;;;;;6.07;3.97;;;12.40;99.90;;;;;;4975684;28;20300;-76
2023/06/12 03:00:39;;;;;;;6.17;3.80;;;12.40;99.90;;;;;;4982507;28;20252;-75
2023/06/12 03:03:07;;;;;;;7.10;3.53;;;12.40;99.90;;;;;;5055510;28;20604;-73
2023/06/12 03:05:36;;;;;;;6.37;3.50;;;12.40;99.90;;;;;;5055190;28;20229;-74
2023/06/12 03:08:03;;;;;;;6.43;3.50;;;12.30;99.90;;;;;;5073243;28;20218;-74
2023/06/12 03:10:30;;;;;;;5.97;3.60;;;12.40;99.90;;;;;;5055313;28;20292;-74
2023/06/12 03:12:58;;;;;;;7.13;3.80;;;12.40;99.90;;;;;;5071950;28;20190;-75
2023/06/12 03:15:26;;;;;;;6.17;3.93;;;12.30;99.90;;;;;;5055315;28;20299;-75
2023/06/12 03:17:53;;;;;;;4.57;3.33;;;12.30;99.90;;;;;;5055072;28;20194;-75
2023/06/12 03:20:20;;;;;;;5.20;3.27;;;12.40;99.90;;;;;;5055164;28;20253;-75
2023/06/12 03:22:47;;;;;;;4.70;3.40;;;12.30;99.90;;;;;;5073631;28;20225;-74
2023/06/12 03:25:18;;;;;;;6.57;3.30;;;12.30;99.90;;;;;;5055005;28;20225;-73
2023/06/12 03:27:46;;;;;;;5.57;3.50;;;12.30;99.90;;;;;;5038323;28;20237;-73
2023/06/12 03:30:13;;;;;;;4.40;3.47;;;12.40;99.90;;;;;;5055450;28;20222;-74
2023/06/12 03:32:40;;;;;;;7.00;3.37;;;12.40;99.90;;;;;;5072764;28;20202;-74
2023/06/12 03:35:08;;;;;;;5.77;3.73;;;12.50;99.90;;;;;;5072609;28;20214;-74
2023/06/12 03:37:35;;;;;;;9.67;3.73;;;12.50;99.90;;;;;;5054897;28;20205;-74
2023/06/12 03:40:03;;;;;;;6.13;3.20;;;12.50;99.90;;;;;;5072625;28;20213;-75
2023/06/12 03:42:30;;;;;;;5.77;3.87;;;12.40;99.90;;;;;;5054543;28;20638;-74
2023/06/12 03:44:57;;;;;;;7.10;3.60;;;12.50;99.90;;;;;;5072510;28;20206;-74
2023/06/12 03:47:24;;;;;;;7.60;3.50;;;12.60;99.90;;;;;;5054681;28;20215;-74
2023/06/12 03:49:51;;;;;;;5.90;3.70;;;12.60;99.90;;;;;;5055058;28;20224;-75
2023/06/12 03:52:18;;;;;;;5.53;3.40;;;12.60;99.90;;;;;;5054508;28;20200;-74
2023/06/12 03:54:45;;;;;;;6.07;3.23;;;12.70;99.90;;;;;;5072367;28;20215;-73
2023/06/12 03:57:14;;;;;;;7.97;3.63;;;12.70;99.90;;;;;;5072776;28;20196;-74
2023/06/12 03:59:41;;;;;;;4.33;3.20;;;12.80;99.90;;;;;;5055007;28;20241;-74
2023/06/12 04:02:12;;;;;;;4.43;2.97;;;12.80;99.90;;;;;;5072343;28;20224;-74
2023/06/12 04:04:41;;;;;;;5.10;3.00;;;12.90;99.90;;;;;;5038276;28;20232;-75
2023/06/12 04:07:13;;;;;;;5.17;3.30;;;12.90;99.90;;;;;;5054565;28;20680;-75
2023/06/12 04:09:42;;;;;;;7.10;3.60;;;13.00;99.90;;;;;;5054712;28;20220;-75
2023/06/12 04:12:13;;;;;;;4.87;3.30;;;13.00;99.90;;;;;;5054369;28;20664;-74
2023/06/12 04:14:42;;;;;;;6.93;3.13;;;13.10;99.90;;;;;;5037644;28;20771;-74
2023/06/12 04:17:09;;;;;;;6.20;3.00;;;13.10;99.90;;;;;;5071229;28;20229;-74
2023/06/12 04:19:38;;;;;;;4.53;3.17;;;13.20;99.90;;;;;;4970868;28;20264;-74
2023/06/12 04:22:12;;;;;;;6.83;3.33;;;13.20;99.90;;;;;;4970943;28;20276;-74
2023/06/12 04:24:45;;;;;;;6.13;3.37;;;13.20;99.90;;;;;;4971066;28;20221;-75
2023/06/12 04:27:13;;;;;;;6.57;3.40;;;13.20;99.90;;;;;;4970944;28;20259;-75
2023/06/12 04:29:42;;;;;;;8.10;3.43;;;13.30;99.90;;;;;;4954932;28;20272;-74
2023/06/12 04:32:13;;;;;;;7.40;3.23;;;13.40;99.90;;;;;;4954855;28;20202;-74
2023/06/12 04:34:43;;;;;;;7.77;3.43;;;13.50;99.90;;;;;;4954898;28;20226;-74
2023/06/12 04:37:13;;;;;;;11.40;3.90;;;13.40;99.90;;;;;;4995783;28;20277;-75
2023/06/12 04:39:41;;;;;;;5.73;3.33;;;13.60;99.90;;;;;;5053740;28;20613;-74
2023/06/12 04:42:10;;;;;;;8.83;3.43;;;13.50;99.90;;;;;;5072164;28;20672;-75
2023/06/12 04:44:39;;;;;;;6.00;3.23;;;13.60;99.90;;;;;;5037398;28;20419;-76
2023/06/12 04:47:11;;;;;;;6.23;3.43;;;13.70;99.90;;;;;;5071800;28;20623;-75
2023/06/12 04:49:43;;;;;;;8.00;3.50;;;13.70;99.90;;;;;;5053955;28;20224;-75
2023/06/12 04:52:12;;;;;;;9.27;3.30;;;13.80;99.90;;;;;;5053963;28;20195;-75
2023/06/12 04:54:44;;;;;;;5.73;3.40;;;13.90;99.90;;;;;;5054271;28;20245;-76
2023/06/12 04:57:12;;;;;;;8.43;3.30;;;14.00;99.90;;;;;;5054066;28;20178;-76
2023/06/12 04:59:39;;;;;;;5.43;3.60;;;14.00;99.90;;;;;;5071695;28;20291;-74
2023/06/12 05:02:08;;;;;;;8.13;3.80;;;14.00;99.90;;;;;;5071715;28;20186;-74
2023/06/12 05:04:36;;;;;;;4.50;3.20;;;14.00;99.90;;;;;;5053716;28;20246;-75
2023/06/12 05:07:13;;;;;;;4.53;3.20;;;14.10;99.90;;;;;;5053585;28;20313;-74
2023/06/12 05:09:40;;;;;;;7.40;3.40;;;14.30;99.90;;;;;;5054394;28;20222;-75
2023/06/12 05:12:09;;;;;;;6.43;3.67;;;14.40;99.90;;;;;;5054334;28;20269;-76
2023/06/12 05:14:42;;;;;;;10.57;3.60;;;14.50;99.90;;;;;;5071758;28;20299;-77
2023/06/12 05:17:11;;;;;;;8.17;3.90;;;14.60;99.90;;;;;;5053859;28;20194;-76
2023/06/12 05:19:41;;;;;;;5.37;3.20;;;14.60;99.90;;;;;;5053681;28;20309;-76
2023/06/12 05:22:08;;;;;;;7.27;3.30;;;14.80;99.90;;;;;;5053636;28;20197;-74
2023/06/12 05:24:35;;;;;;;7.27;3.13;;;14.80;99.90;;;;;;5070228;28;20249;-76
2023/06/12 05:27:03;;;;;;;14.97;4.17;;;14.90;99.90;;;;;;5071534;28;20210;-76
2023/06/12 05:29:30;;;;;;;6.63;3.10;;;15.00;99.90;;;;;;5055845;28;20204;-76
2023/06/12 05:31:57;;;;;;;8.47;3.20;;;15.10;99.90;;;;;;5057735;28;20208;-76
2023/06/12 05:34:24;;;;;;;5.30;3.47;;;15.20;99.90;;;;;;5057192;28;20282;-77
2023/06/12 05:36:51;;;;;;;5.77;3.00;;;15.30;99.90;;;;;;5075250;28;20194;-75
2023/06/12 05:39:18;;;;;;;6.17;3.60;;;15.40;99.90;;;;;;5057008;28;20244;-74
2023/06/12 05:41:45;;;;;;;5.90;3.37;;;15.40;99.90;;;;;;5057053;28;20224;-75
2023/06/12 05:44:14;;;;;;;5.87;3.50;;;15.50;99.90;;;;;;5040667;28;20214;-75
2023/06/12 05:46:41;;;;;;;10.47;3.50;;;15.60;99.90;;;;;;5075223;28;20194;-74
2023/06/12 05:49:08;;;;;;;5.50;3.20;;;15.60;99.90;;;;;;5073778;28;20226;-76
2023/06/12 05:51:35;;;;;;;6.97;3.40;;;15.70;99.90;;;;;;5057054;28;20697;-73
2023/06/12 05:54:02;;;;;;;4.90;3.00;;;15.80;99.90;;;;;;5056722;28;20194;-75
2023/06/12 05:56:29;;;;;;;7.20;3.00;;;15.90;99.90;;;;;;5057457;28;20213;-76
2023/06/12 05:59:44;;;;;;;6.00;3.10;;;16.00;99.90;;;;;;5125997;27;20502;-76
2023/06/12 06:02:11;;;;;;;4.97;2.90;;;16.00;99.90;;;;;;5091664;28;20189;-76
2023/06/12 06:04:38;;;;;;;9.90;3.10;;;16.10;99.90;;;;;;5091959;28;20300;-76
2023/06/12 06:07:11;;;;;;;4.90;3.00;;;16.20;99.90;;;;;;5092255;28;20536;-76
2023/06/12 06:09:44;;;;;;;5.87;2.83;;;16.20;99.90;;;;;;5076101;28;20216;-77
2023/06/12 06:12:12;;;;;;;7.27;3.30;;;16.30;99.90;;;;;;5110816;28;20193;-76
2023/06/12 06:14:39;;;;;;;7.93;3.40;;;16.40;99.90;;;;;;5075519;28;20593;-77
2023/06/12 06:17:06;;;;;;;6.67;3.00;;;16.60;99.90;;;;;;5091575;28;20197;-76
2023/06/12 06:19:34;;;;;;;6.27;3.10;;;16.60;99.90;;;;;;5075257;28;20224;-76
2023/06/12 06:22:04;;;;;;;8.97;2.87;;;16.80;99.90;;;;;;5091265;28;20737;-75
2023/06/12 06:24:32;;;;;;;7.93;2.73;;;16.90;99.90;;;;;;5091176;28;20244;-74
2023/06/12 06:26:59;;;;;;;8.60;2.70;;;17.00;99.90;;;;;;5091154;28;20241;-77
2023/06/12 06:29:26;;;;;;;11.33;3.30;;;17.10;99.90;;;;;;5109302;28;20204;-75
2023/06/12 06:31:53;;;;;;;7.03;2.78;;;17.10;99.90;;;;;;5109081;28;20428;-77
2023/06/12 06:34:21;;;;;;;7.27;2.73;;;17.20;99.90;;;;;;5091303;28;20657;-76
2023/06/12 06:36:48;;;;;;;7.90;2.70;;;17.30;99.90;;;;;;5090855;28;20211;-74
2023/06/12 06:39:16;;;;;;;6.80;2.60;;;17.40;99.90;;;;;;5109067;28;20245;-74
2023/06/12 06:41:43;;;;;;;5.23;2.47;;;17.50;99.90;;;;;;5090766;28;20328;-74
2023/06/12 06:44:10;;;;;;;9.83;2.80;;;17.60;99.90;;;;;;5109041;28;20189;-74
2023/06/12 06:46:36;;;;;;;9.60;2.77;;;17.70;99.90;;;;;;5090722;28;20200;-74
2023/06/12 06:49:03;;;;;;;7.07;2.60;;;17.90;99.90;;;;;;5108788;28;20192;-74
2023/06/12 06:51:31;;;;;;;8.50;2.60;;;18.00;99.90;;;;;;5090529;28;20248;-74
2023/06/12 06:53:59;;;;;;;6.97;2.57;;;18.10;99.90;;;;;;5073545;28;20283;-75
2023/06/12 06:56:26;;;;;;;8.90;2.77;;;18.20;99.90;;;;;;5108862;28;20217;-74
2023/06/12 06:58:53;;;;;;;4.40;2.10;;;18.40;99.90;;;;;;5100554;28;20233;-75
2023/06/12 07:01:21;;;;;;;5.80;1.87;;;18.50;99.90;;;;;;5107920;28;20217;-75
2023/06/12 07:03:48;;;;;;;4.67;2.00;;;18.60;99.90;;;;;;5107788;28;20208;-75
2023/06/12 07:06:15;;;;;;;3.30;1.80;;;18.60;99.90;;;;;;5108787;28;20205;-75
2023/06/12 07:08:42;;;;;;;3.70;1.80;;;18.70;99.40;;;;;;5090688;28;20193;-75
2023/06/12 07:11:09;;;;;;;6.10;1.80;;;18.70;99.00;;;;;;5093343;28;20308;-75
2023/06/12 07:13:38;;;;;;;6.83;2.00;;;18.80;99.40;;;;;;5094090;28;20262;-74
2023/06/12 07:16:05;;;;;;;4.47;2.10;;;18.80;98.40;;;;;;5093973;28;20241;-74
2023/06/12 07:18:32;;;;;;;5.53;1.80;;;18.80;98.20;;;;;;5093965;28;20232;-75
2023/06/12 07:21:00;;;;;;;2.90;1.70;;;18.90;98.90;;;;;;5077048;28;20213;-75
2023/06/12 07:23:27;;;;;;;5.37;1.70;;;19.00;97.60;;;;;;5076901;28;20641;-75
2023/06/12 07:25:54;;;;;;;5.73;2.00;;;19.10;97.30;;;;;;5093875;28;20308;-75
2023/06/12 07:28:22;;;;;;;3.27;1.80;;;19.20;94.80;;;;;;5093646;28;20194;-76
2023/06/12 07:30:50;;;;;;;4.33;2.10;;;19.10;95.10;;;;;;5093815;28;20243;-75
2023/06/12 07:33:17;;;;;;;2.70;1.70;;;19.20;94.10;;;;;;5094993;28;20197;-76
2023/06/12 07:35:44;;;;;;;3.07;1.83;;;19.30;93.40;;;;;;5076750;28;20221;-76
2023/06/12 07:38:12;;;;;;;5.30;1.83;;;19.40;92.80;;;;;;5093299;28;20645;-75
2023/06/12 07:40:39;;;;;;;6.30;1.97;;;19.50;92.60;;;;;;5076596;28;20266;-75
2023/06/12 07:43:07;;;;;;;2.73;1.80;;;19.60;93.10;;;;;;5093192;28;20205;-76
2023/06/12 07:45:36;;;;;;;4.50;1.77;;;19.70;92.30;;;;;;5094484;28;20216;-75
2023/06/12 07:48:03;;;;;;;2.10;1.80;;;19.80;91.20;;;;;;5076933;28;20472;-75
2023/06/12 07:50:30;;;;;;;5.13;1.73;;;19.90;90.90;;;;;;5092874;28;20213;-75
2023/06/12 07:52:57;;;;;;;5.47;1.93;;;19.80;90.30;;;;;;5093183;28;20193;-74
2023/06/12 07:55:26;;;;;;;2.37;1.87;;;19.90;91.40;;;;;;5076019;28;20217;-74
2023/06/12 07:57:54;;;;;;;6.03;2.00;;;20.00;90.00;;;;;;5075706;28;20273;-74
2023/06/12 08:00:22;;;;;;;3.73;1.60;;;20.10;89.60;;;;;;5092848;28;20214;-75
2023/06/12 08:02:54;;;;;;;4.03;1.73;;;20.20;88.60;;;;;;5094671;28;20193;-76
2023/06/12 08:05:25;;;;;;;2.87;1.67;;;20.10;86.70;;;;;;5076127;28;20216;-75
2023/06/12 08:07:52;;;;;;;4.13;1.40;;;20.10;85.40;;;;;;5075785;28;20202;-75
2023/06/12 08:10:19;;;;;;;5.13;1.50;;;20.30;82.50;;;;;;5092514;28;20213;-74
2023/06/12 08:12:47;;;;;;;5.87;1.70;;;20.30;80.70;;;;;;5092727;28;20205;-75
2023/06/12 08:15:14;;;;;;;5.17;1.90;;;20.20;78.30;;;;;;5092429;28;20221;-75
2023/06/12 08:17:44;;;;;;;2.17;1.50;;;20.30;81.40;;;;;;5092848;28;20657;-74
2023/06/12 08:20:11;;;;;;;6.87;1.80;;;20.50;83.30;;;;;;5093698;28;20658;-74
2023/06/12 08:22:39;;;;;;;5.10;1.63;;;20.70;81.30;;;;;;5074995;28;20554;-74
2023/06/12 08:25:07;;;;;;;6.07;1.40;;;21.20;78.70;;;;;;5092380;28;20243;-74
2023/06/12 08:27:34;;;;;;;2.03;1.30;;;22.00;73.90;;;;;;5092788;28;20281;-75
2023/06/12 08:30:03;;;;;;;4.33;1.80;;;22.70;71.40;;;;;;5092478;28;20308;-75
2023/06/12 08:32:31;;;;;;;5.82;2.10;;;22.90;67.30;;;;;;5075571;28;20242;-74
2023/06/12 08:34:58;;;;;;;6.20;1.80;;;23.40;65.60;;;;;;5091986;28;20213;-75
2023/06/12 08:37:25;;;;;;;2.83;1.80;;;23.60;64.20;;;;;;5092349;28;20564;-75
2023/06/12 08:39:52;;;;;;;3.85;1.65;;;24.10;65.10;;;;;;5075435;28;20264;-74
2023/06/12 08:42:21;;;;;;;4.70;1.75;;;24.20;61.90;;;;;;5091986;28;20217;-75
2023/06/12 08:44:50;;;;;;;2.70;1.80;;;24.00;60.40;;;;;;5092231;28;20206;-75
2023/06/12 08:47:19;;;;;;;5.55;1.90;;;24.20;61.60;;;;;;5093527;28;20190;-75
2023/06/12 08:49:46;;;;;;;3.63;1.83;;;24.30;60.90;;;;;;5093298;28;20304;-74
2023/06/12 08:52:14;;;;;;;5.80;1.80;;;24.50;60.00;;;;;;5091916;28;20220;-75
2023/06/12 08:54:45;;;;;;;5.50;1.95;;;24.80;60.00;;;;;;5092192;28;20239;-74
2023/06/12 08:57:13;;;;;;;3.53;1.80;;;25.10;59.40;;;;;;5093175;28;20592;-75
2023/06/12 08:59:40;;;;;;;4.63;1.70;;;25.30;59.40;;;;;;5073031;28;20233;-74
2023/06/12 09:02:10;;;;;;;4.20;2.00;;;25.50;58.00;;;;;;5054886;28;20650;-75
2023/06/12 09:04:54;;;;;;;5.30;1.90;;;25.40;56.80;;;;;;5054916;28;20218;-76
2023/06/12 09:07:25;;;;;;;6.47;1.88;;;25.20;56.60;;;;;;5055139;28;20198;-76
2023/06/12 09:09:52;;;;;;;5.80;2.25;;;24.90;56.50;;;;;;5054985;28;20697;-75
2023/06/12 09:12:29;;;;;;;3.42;1.70;;;25.10;56.70;;;;;;5073239;28;20565;-75
2023/06/12 09:15:01;;;;;;;3.22;1.70;;;25.30;55.10;;;;;;5072530;28;20707;-76
2023/06/12 09:17:29;;;;;;;3.63;1.80;;;25.00;55.90;;;;;;5054927;28;20637;-74
2023/06/12 09:19:56;;;;;;;4.20;2.10;;;25.20;58.70;;;;;;5072632;28;20222;-74
2023/06/12 09:22:23;;;;;;;4.97;1.80;;;25.40;56.10;;;;;;5054477;28;20233;-75
2023/06/12 09:24:51;;;;;;;3.83;1.70;;;25.60;57.10;;;;;;5037346;28;20736;-75
2023/06/12 09:27:24;;;;;;;4.95;2.17;;;25.80;55.80;;;;;;5038069;28;20194;-75
2023/06/12 09:29:59;;;;;;;3.70;1.70;;;25.60;55.00;;;;;;5054395;28;20325;-76
2023/06/12 09:32:30;;;;;;;6.72;2.15;;;25.60;56.00;;;;;;5037433;28;20225;-74
2023/06/12 09:34:57;;;;;;;5.15;2.10;;;25.80;56.20;;;;;;5054145;28;20287;-74
2023/06/12 09:37:26;;;;;;;7.03;2.20;;;25.80;54.80;;;;;;5054422;28;20285;-74
2023/06/12 09:40:11;;;;;;;3.53;1.90;;;25.80;53.50;;;;;;5053888;28;20217;-75
2023/06/12 09:42:40;;;;;;;5.20;2.55;;;25.90;54.20;;;;;;5054331;28;20255;-75
2023/06/12 09:45:13;;;;;;;2.63;1.85;;;26.20;53.00;;;;;;5071809;28;20233;-74
2023/06/12 09:47:48;;;;;;;2.00;1.70;;;26.20;54.10;;;;;;5053960;28;20650;-74
2023/06/12 09:50:17;;;;;;;4.10;1.90;;;26.30;53.20;;;;;;5037471;28;20256;-74
2023/06/12 09:52:47;;;;;;;4.80;2.10;;;26.20;53.00;;;;;;5037282;28;20668;-74
2023/06/12 09:55:16;;;;;;;3.90;1.83;;;26.40;53.90;;;;;;5053757;28;20257;-74
2023/06/12 09:57:48;;;;;;;3.05;1.95;;;26.00;53.30;;;;;;5071931;28;20620;-75
2023/06/12 10:00:17;;;;;;;2.33;1.70;;;26.30;52.80;;;;;;5053754;28;20233;-74
2023/06/12 10:03:00;;;;;;;3.67;1.80;;;26.60;53.10;;;;;;5071905;28;20198;-75
2023/06/12 10:05:37;;;;;;;5.75;1.98;;;26.50;51.70;;;;;;5071771;28;20206;-74
2023/06/12 10:08:05;;;;;;;3.03;1.90;;;26.50;52.00;;;;;;5072331;28;20277;-74
2023/06/12 10:10:35;;;;;;;3.22;1.85;;;26.90;52.20;;;;;;5072089;28;20220;-75
2023/06/12 10:13:04;;;;;;;2.05;1.70;;;27.10;51.30;;;;;;5053802;28;20198;-75
2023/06/12 10:15:31;;;;;;;2.92;1.70;;;27.20;50.50;;;;;;5053895;28;20224;-74
2023/06/12 10:17:58;;;;;;;4.20;1.60;;;27.40;51.00;;;;;;5053941;28;20198;-73
2023/06/12 10:20:26;;;;;;;3.25;1.90;;;27.40;50.40;;;;;;5071461;28;20734;-74
2023/06/12 10:22:57;;;;;;;4.63;1.83;;;27.30;50.70;;;;;;5053681;28;20193;-74
2023/06/12 10:25:24;;;;;;;3.28;1.90;;;27.40;51.00;;;;;;5053685;28;20217;-74
2023/06/12 10:27:53;;;;;;;5.15;1.98;;;27.70;51.90;;;;;;5053586;28;20281;-75
2023/06/12 10:30:20;;;;;;;3.45;1.95;;;27.90;52.70;;;;;;5053840;28;20222;-74
2023/06/12 10:32:47;;;;;;;4.28;1.95;;;28.50;51.40;;;;;;5053420;28;20201;-74
2023/06/12 10:35:30;;;;;;;2.50;1.85;;;28.50;49.80;;;;;;5037533;28;20524;-75
2023/06/12 10:37:57;;;;;;;5.47;1.90;;;28.30;49.40;;;;;;5037056;28;20373;-75
2023/06/12 10:40:25;;;;;;;3.70;1.80;;;28.20;50.40;;;;;;5036954;28;20761;-74
2023/06/12 10:43:12;;;;;;;2.60;1.83;;;28.90;49.20;;;;;;5053531;28;20190;-75
2023/06/12 10:45:39;;;;;;;7.93;1.83;;;28.90;47.90;;;;;;5055803;28;20304;-75
2023/06/12 10:48:06;;;;;;;2.72;1.70;;;29.30;48.40;;;;;;5057352;28;20214;-75
2023/06/12 10:50:45;;;;;;;4.28;1.90;;;29.60;47.90;;;;;;5041280;28;20587;-75
2023/06/12 10:53:29;;;;;;;2.58;2.00;;;29.60;46.90;;;;;;5040390;28;20552;-75
2023/06/12 10:56:05;;;;;;;4.85;2.00;;;29.80;47.40;;;;;;5056820;28;20272;-75
2023/06/12 10:58:37;;;;;;;5.72;2.20;;;29.70;47.50;;;;;;5057668;28;20260;-76
2023/06/12 11:01:23;;;;;;;4.30;1.90;;;29.40;47.10;;;;;;5094928;28;20213;-76
2023/06/12 11:03:51;;;;;;;2.45;1.98;;;28.20;47.50;;;;;;5093744;28;20193;-75
2023/06/12 11:06:20;;;;;;;3.58;1.70;;;28.50;47.20;;;;;;5093694;28;20229;-76
2023/06/12 11:08:47;;;;;;;3.03;1.92;;;29.10;47.50;;;;;;5094122;28;20198;-75
2023/06/12 11:11:17;;;;;;;3.50;2.13;;;29.10;46.00;;;;;;5094162;28;20221;-74
2023/06/12 11:13:48;;;;;;;7.30;2.10;;;29.10;46.60;;;;;;5077291;28;20596;-75
2023/06/12 11:16:16;;;;;;;2.50;2.05;;;29.60;48.20;;;;;;5093477;28;20260;-74
2023/06/12 11:18:43;;;;;;;3.58;1.90;;;30.20;46.90;;;;;;5093288;28;20197;-75
2023/06/12 11:21:11;;;;;;;3.25;1.75;;;30.40;45.60;;;;;;5093734;28;20213;-74
2023/06/12 11:23:42;;;;;;;3.03;1.70;;;30.30;44.30;;;;;;5094411;28;20186;-75
2023/06/12 11:26:10;;;;;;;4.18;1.90;;;30.20;45.10;;;;;;5092838;28;20229;-75
2023/06/12 11:28:37;;;;;;;2.63;2.00;;;30.40;44.70;;;;;;5093091;28;20190;-74
2023/06/12 11:31:07;;;;;;;5.90;1.90;;;30.60;43.70;;;;;;5092990;28;20224;-73
2023/06/12 11:33:37;;;;;;;4.15;1.90;;;31.10;43.30;;;;;;5093132;28;20258;-74
2023/06/12 11:36:06;;;;;;;3.85;2.10;;;31.40;43.50;;;;;;5093456;28;20274;-73
2023/06/12 11:38:33;;;;;;;7.20;1.70;;;31.70;43.00;;;;;;5094636;28;20284;-74
2023/06/12 11:41:08;;;;;;;3.03;1.70;;;32.00;41.70;;;;;;5093259;28;20236;-74
2023/06/12 11:43:36;;;;;;;3.92;2.00;;;31.90;41.90;;;;;;5092916;28;20201;-73
2023/06/12 11:46:03;;;;;;;9.25;2.03;;;31.40;42.00;;;;;;5094307;28;20621;-74
2023/06/12 11:48:32;;;;;;;2.10;1.70;;;31.30;42.80;;;;;;5092974;28;20250;-75
2023/06/12 11:51:02;;;;;;;2.65;2.10;;;30.80;43.60;;;;;;5092793;28;20239;-74
2023/06/12 11:53:32;;;;;;;6.00;1.83;;;30.30;44.10;;;;;;5093066;28;20201;-74
2023/06/12 11:56:04;;;;;;;3.22;1.83;;;29.80;43.90;;;;;;5092502;28;20221;-74
2023/06/12 11:58:36;;;;;;;3.50;2.00;;;29.20;45.00;;;;;;5092249;28;20233;-74
2023/06/12 12:01:22;;;;;;;3.17;1.95;;;29.30;45.30;;;;;;5093789;28;20589;-73
2023/06/12 12:03:50;;;;;;;2.72;1.80;;;29.20;44.90;;;;;;5093964;28;20268;-73
2023/06/12 12:06:23;;;;;;;5.25;1.95;;;28.90;44.80;;;;;;5092391;28;20222;-73
2023/06/12 12:08:58;;;;;;;5.45;2.20;;;29.00;45.10;;;;;;5091956;28;20193;-74
2023/06/12 12:11:30;;;;;;;3.40;1.88;;;29.60;44.90;;;;;;5075273;28;20212;-73
2023/06/12 12:14:02;;;;;;;4.68;2.05;;;30.40;44.10;;;;;;5092337;28;20193;-75
2023/06/12 12:16:42;;;;;;;3.90;1.73;;;30.40;43.30;;;;;;5092273;28;20218;-73
2023/06/12 12:19:25;;;;;;;4.22;1.92;;;30.50;43.10;;;;;;5091998;28;20236;-74
2023/06/12 12:21:54;;;;;;;4.43;2.00;;;30.10;44.50;;;;;;5075596;28;20207;-73
2023/06/12 12:24:24;;;;;;;5.50;2.20;;;30.00;44.70;;;;;;5091992;28;20288;-73
2023/06/12 12:26:53;;;;;;;3.83;2.10;;;30.50;43.40;;;;;;5092011;28;20202;-74
2023/06/12 12:29:22;;;;;;;15.30;2.30;;;30.90;44.60;;;;;;5093377;28;20288;-74
2023/06/12 12:31:49;;;;;;;5.53;2.05;;;30.30;42.80;;;;;;5075258;28;20271;-74
2023/06/12 12:34:17;;;;;;;3.25;1.92;;;29.30;43.80;;;;;;5091740;28;20207;-74
2023/06/12 12:36:45;;;;;;;4.72;2.20;;;28.70;44.50;;;;;;5091860;28;20189;-74
2023/06/12 12:39:12;;;;;;;3.60;2.30;;;28.30;45.30;;;;;;5093535;28;20554;-73
2023/06/12 12:41:39;;;;;;;4.97;1.90;;;28.30;44.00;;;;;;5092185;28;20198;-73
2023/06/12 12:44:08;;;;;;;5.07;2.03;;;28.90;44.60;;;;;;5093519;28;20642;-73
2023/06/12 12:46:35;;;;;;;3.65;2.05;;;29.60;43.70;;;;;;5091844;28;20262;-74
2023/06/12 12:49:02;;;;;;;6.40;2.10;;;30.10;43.00;;;;;;5091754;28;20225;-74
2023/06/12 12:51:29;;;;;;;4.60;2.28;;;30.60;42.30;;;;;;5093192;28;20224;-74
2023/06/12 12:53:56;;;;;;;3.25;1.73;;;30.80;42.70;;;;;;5092960;28;20195;-74
2023/06/12 12:56:24;;;;;;;3.60;2.00;;;30.50;42.40;;;;;;5075123;28;20756;-74